Time;durP1;ratioP1;P1;durP2;ratioP2;P2;SDS_P1;SDS_P2;PMS_P1;PMS_P2;Temp;Humidity;BMP_temperature;BMP_pressure;BME280_temperature;BME280_humidity;BME280_pressure;Samples;Min_cycle;Max_cycle;Signal;HPM_P1;HPM_P2
2024/04/20 00:00:04;;;;;;;;;9.67;5.33;;;;;9.44;62.91;101969.84;2128004;26;2772192;-72
2024/04/20 00:01:18;;;;;;;;;2.00;2.00;;;;;9.43;63.67;101976.00;2208533;26;2728354;-72
2024/04/20 00:02:32;;;;;;;;;3.50;2.67;;;;;9.41;62.59;101976.00;2205440;26;2742926;-74
2024/04/20 00:03:43;;;;;;;;;6.00;6.00;;;;;9.37;63.15;101976.03;2178924;25;3472601;-72
2024/04/20 00:04:57;;;;;;;;;2.83;2.33;;;;;9.32;63.13;101968.19;2209135;26;2736711;-72
2024/04/20 00:06:08;;;;;;;;;5.33;4.00;;;;;9.28;63.22;101969.13;2169888;26;2744342;-72
2024/04/20 00:07:21;;;;;;;;;8.67;5.33;;;;;9.28;62.96;101975.25;2199155;26;2740810;-72
2024/04/20 00:08:35;;;;;;;;;5.50;4.50;;;;;9.22;63.04;101968.28;2162764;26;2758542;-73
2024/04/20 00:09:46;;;;;;;;;10.67;5.67;;;;;9.22;63.63;101965.66;2177692;26;2774656;-73
2024/04/20 00:11:01;;;;;;;;;10.33;6.00;;;;;9.22;62.93;101973.53;2179449;26;2771181;-73
2024/04/20 00:12:15;;;;;;;;;6.33;5.67;;;;;9.20;63.22;101972.66;2179138;25;2743966;-73
2024/04/20 00:13:28;;;;;;;;;7.50;5.00;;;;;9.19;62.93;101978.78;2209188;25;2760673;-73
2024/04/20 00:14:42;;;;;;;;;6.00;4.67;;;;;9.19;63.70;101978.78;2171345;26;2748173;-73
2024/04/20 00:15:56;;;;;;;;;6.33;3.67;;;;;9.19;63.95;101964.78;2176650;26;2754426;-73
2024/04/20 00:17:10;;;;;;;;;3.50;3.17;;;;;9.20;62.92;101979.66;2168401;26;2747099;-73
2024/04/20 00:18:23;;;;;;;;;7.17;5.83;;;;;9.19;63.24;101981.41;2167854;26;2748126;-73
2024/04/20 00:19:39;;;;;;;;;7.17;4.67;;;;;9.19;63.04;101977.91;2168028;26;2750250;-73
2024/04/20 00:20:53;;;;;;;;;6.83;4.00;;;;;9.16;63.10;101976.16;2168442;26;2753354;-73
2024/04/20 00:22:07;;;;;;;;;3.17;3.17;;;;;9.13;62.48;101981.47;2167421;26;2741876;-72
2024/04/20 00:23:20;;;;;;;;;7.33;4.00;;;;;9.11;63.24;101985.84;2192513;26;2751266;-73
2024/04/20 00:24:31;;;;;;;;;4.33;3.00;;;;;9.06;62.84;101980.59;2149008;26;2752407;-73
2024/04/20 00:25:45;;;;;;;;;7.00;5.17;;;;;9.06;62.56;101977.97;2201833;26;2748152;-73
2024/04/20 00:26:59;;;;;;;;;3.50;3.50;;;;;9.03;63.19;101978.03;2193237;26;2740547;-72
2024/04/20 00:28:10;;;;;;;;;6.00;5.67;;;;;9.07;62.73;101989.34;2167013;26;2752311;-73
2024/04/20 00:29:24;;;;;;;;;2.67;2.67;;;;;9.05;62.27;101985.88;2192743;26;2748136;-72
2024/04/20 00:30:37;;;;;;;;;7.17;4.83;;;;;9.05;62.56;101984.13;2193705;26;2753344;-73
2024/04/20 00:31:48;;;;;;;;;7.33;4.00;;;;;9.07;62.83;101994.59;2139625;26;3481429;-73
2024/04/20 00:33:02;;;;;;;;;5.67;4.17;;;;;9.06;62.85;101992.88;2192587;26;2754398;-73
2024/04/20 00:34:16;;;;;;;;;8.17;4.17;;;;;9.07;62.27;101989.34;2199487;26;2762700;-73
2024/04/20 00:35:36;;;;;;;;;6.00;5.00;;;;;9.08;62.90;101985.88;2181241;26;2749227;-73
2024/04/20 00:36:51;;;;;;;;;8.00;3.67;;;;;9.13;63.22;101996.31;2183529;26;2755461;-73
2024/04/20 00:38:05;;;;;;;;;3.33;3.00;;;;;9.09;62.31;101998.97;2169976;26;2745005;-73
2024/04/20 00:39:19;;;;;;;;;8.17;4.50;;;;;9.08;62.93;101985.88;2167930;26;2743978;-73
2024/04/20 00:40:32;;;;;;;;;5.00;4.33;;;;;9.08;62.46;101985.88;2166099;26;2748162;-73
2024/04/20 00:41:49;;;;;;;;;5.33;3.33;;;;;9.12;63.31;101995.44;2192282;26;2749171;-73
2024/04/20 00:43:04;;;;;;;;;5.50;5.00;;;;;9.11;62.57;101991.09;2193692;26;2733538;-73
2024/04/20 00:44:18;;;;;;;;;4.50;3.00;;;;;9.12;62.60;101992.81;2175080;26;2741891;-73
2024/04/20 00:45:32;;;;;;;;;8.00;3.17;;;;;9.07;63.01;101989.34;2179740;25;2730453;-73
2024/04/20 00:46:48;;;;;;;;;5.50;5.00;;;;;9.09;62.50;101988.47;2166739;26;2736672;-73
2024/04/20 00:48:02;;;;;;;;;7.67;4.17;;;;;9.12;63.08;101990.19;2157542;26;2737729;-73
2024/04/20 00:49:16;;;;;;;;;4.67;2.67;;;;;9.09;61.81;101987.59;2166960;26;2731448;-73
2024/04/20 00:50:31;;;;;;;;;5.33;3.00;;;;;9.06;62.20;101987.63;2169111;26;2742952;-73
2024/04/20 00:51:45;;;;;;;;;3.00;1.67;;;;;9.04;62.27;101987.63;2170397;26;2736918;-73
2024/04/20 00:52:59;;;;;;;;;5.50;5.00;;;;;9.05;63.09;101984.13;2193684;26;2746061;-73
2024/04/20 00:54:13;;;;;;;;;4.00;3.50;;;;;9.05;62.26;101983.25;2173621;26;2728326;-73
2024/04/20 00:55:29;;;;;;;;;4.50;3.50;;;;;9.04;62.10;101982.38;2181881;26;2750243;-73
2024/04/20 00:56:43;;;;;;;;;5.50;3.67;;;;;9.04;62.86;101984.16;2169252;26;2746034;-73
2024/04/20 00:58:00;;;;;;;;;5.67;4.00;;;;;9.05;62.54;101991.13;2168208;26;2746038;-73
2024/04/20 00:59:14;;;;;;;;;5.00;4.50;;;;;9.07;62.91;101984.09;2166489;26;2752272;-73
2024/04/20 01:00:29;;;;;;;;;6.33;2.33;;;;;9.07;62.37;101984.09;2168659;26;2750218;-73
2024/04/20 01:01:43;;;;;;;;;4.83;3.17;;;;;9.02;62.70;101981.53;2197146;26;2748139;-73
2024/04/20 01:02:57;;;;;;;;;3.67;3.67;;;;;8.98;62.55;101975.44;2206911;26;2737705;-73
2024/04/20 01:04:11;;;;;;;;;3.50;2.00;;;;;8.98;62.43;101980.69;2180416;26;2737728;-72
2024/04/20 01:05:25;;;;;;;;;4.83;3.33;;;;;8.95;62.68;101982.44;2179403;26;2743958;-73
2024/04/20 01:06:39;;;;;;;;;5.83;3.83;;;;;8.93;62.35;101979.84;2180473;26;2756545;-73
2024/04/20 01:07:52;;;;;;;;;3.67;2.83;;;;;8.95;62.47;101975.44;2167506;26;2741899;-73
2024/04/20 01:09:06;;;;;;;;;5.67;4.00;;;;;8.97;62.32;101981.56;2192719;26;2750223;-73
2024/04/20 01:10:20;;;;;;;;;5.67;3.50;;;;;8.96;62.04;101982.41;2169946;26;2741916;-73
2024/04/20 01:11:34;;;;;;;;;4.33;3.33;;;;;8.97;62.68;101984.16;2166951;26;2750211;-73
2024/04/20 01:12:47;;;;;;;;;4.00;4.00;;;;;8.99;62.16;101984.16;2192045;26;2741894;-73
2024/04/20 01:14:02;;;;;;;;;6.67;3.83;;;;;8.95;62.18;101985.06;2193209;26;2738773;-73
2024/04/20 01:15:13;;;;;;;;;7.33;4.33;;;;;8.94;62.49;101986.81;2179164;26;3462710;-73
2024/04/20 01:16:27;;;;;;;;;3.83;3.33;;;;;8.91;62.33;101983.34;2193337;26;2734564;-73
2024/04/20 01:17:42;;;;;;;;;4.67;3.17;;;;;8.91;62.34;101984.22;2192412;26;2750527;-73
2024/04/20 01:18:53;;;;;;;;;10.67;3.33;;;;;8.89;62.29;101980.72;2163689;26;3504358;-73
2024/04/20 01:20:13;;;;;;;;;5.67;4.33;;;;;8.90;62.41;101987.72;2193459;26;2749510;-73
2024/04/20 01:21:26;;;;;;;;;4.17;2.00;;;;;8.89;62.21;101991.19;2193877;26;2741875;-73
2024/04/20 01:22:41;;;;;;;;;5.50;5.00;;;;;8.89;62.52;101991.19;2191890;26;2754422;-73
2024/04/20 01:23:59;;;;;;;;;6.83;6.50;;;;;8.87;62.22;101992.97;2191339;26;2752389;-73
2024/04/20 01:25:14;;;;;;;;;7.67;5.17;;;;;8.85;62.65;101992.09;2169543;26;2750219;-72
2024/04/20 01:26:28;;;;;;;;;6.00;5.00;;;;;8.83;62.67;101993.88;2181820;26;2751231;-73
2024/04/20 01:27:44;;;;;;;;;7.17;6.00;;;;;8.83;62.93;101993.88;2181711;25;2756482;-73
2024/04/20 01:28:57;;;;;;;;;6.33;6.00;;;;;8.82;62.88;101997.34;2181085;26;2747130;-73
2024/04/20 01:30:15;;;;;;;;;4.00;3.33;;;;;8.81;62.31;101996.50;2181049;26;2752606;-73
2024/04/20 01:31:29;;;;;;;;;4.67;4.67;;;;;8.81;63.23;101988.66;2183261;26;2731519;-73
2024/04/20 01:32:40;;;;;;;;;11.00;5.00;;;;;8.82;62.46;101992.13;2164287;26;2773178;-73
2024/04/20 01:33:53;;;;;;;;;3.33;2.83;;;;;8.83;63.22;101991.25;2193583;26;2736069;-73
2024/04/20 01:35:07;;;;;;;;;7.00;5.17;;;;;8.84;63.04;101993.00;2203107;25;2750215;-73
2024/04/20 01:36:21;;;;;;;;;4.83;4.83;;;;;8.85;62.71;101992.97;2177508;26;2746086;-73
2024/04/20 01:37:35;;;;;;;;;3.67;3.67;;;;;8.88;62.90;101994.72;2184093;26;2754397;-73
2024/04/20 01:38:50;;;;;;;;;6.67;5.00;;;;;8.88;63.05;101999.97;2206312;26;2739799;-73
2024/04/20 01:40:04;;;;;;;;;6.50;4.33;;;;;8.82;62.65;101987.75;2194297;26;2752288;-73
2024/04/20 01:41:18;;;;;;;;;5.83;5.83;;;;;8.84;62.93;101993.84;2192819;26;2750200;-73
2024/04/20 01:42:32;;;;;;;;;3.83;3.17;;;;;8.84;62.55;101993.00;2193218;26;2737744;-73
2024/04/20 01:43:45;;;;;;;;;8.00;6.00;;;;;8.82;63.38;101992.13;2167564;26;2747068;-73
2024/04/20 01:44:59;;;;;;;;;4.83;3.83;;;;;8.84;63.26;101998.25;2203428;26;2744062;-73
2024/04/20 01:46:13;;;;;;;;;6.33;5.17;;;;;8.83;62.93;101986.88;2206989;25;2747099;-73
2024/04/20 01:47:28;;;;;;;;;6.67;4.83;;;;;8.83;63.54;101992.13;2175159;26;2746038;-73
2024/04/20 01:48:42;;;;;;;;;8.67;5.00;;;;;8.84;62.84;101999.09;2156257;26;2747103;-73
2024/04/20 01:49:56;;;;;;;;;5.67;3.83;;;;;8.84;62.57;101998.25;2166983;26;2748181;-73
2024/04/20 01:51:10;;;;;;;;;6.00;3.83;;;;;8.86;63.29;101996.50;2181675;26;2744002;-73
2024/04/20 01:52:24;;;;;;;;;9.67;5.83;;;;;8.86;63.11;102007.84;2175638;25;2743982;-73
2024/04/20 01:53:38;;;;;;;;;6.17;4.83;;;;;8.83;62.96;102002.63;2167435;26;2754367;-73
2024/04/20 01:54:51;;;;;;;;;4.67;3.00;;;;;8.84;62.82;102000.88;2176173;26;2741911;-73
2024/04/20 01:56:05;;;;;;;;;3.67;3.17;;;;;8.84;63.26;102000.88;2207437;25;2737693;-73
2024/04/20 01:57:19;;;;;;;;;2.83;2.00;;;;;8.85;63.38;102002.59;2173787;26;2741867;-73
2024/04/20 01:58:30;;;;;;;;;9.67;5.67;;;;;8.83;62.60;102007.84;2163691;26;2772209;-73
2024/04/20 01:59:41;;;;;;;;;6.33;5.67;;;;;8.80;62.90;102005.25;2173638;26;2745008;-73
2024/04/20 02:00:55;;;;;;;;;4.33;4.33;;;;;8.76;62.89;102017.50;2207350;25;2752709;-73
2024/04/20 02:02:05;;;;;;;;;8.67;6.00;;;;;8.71;63.18;102014.03;2176112;26;2756476;-73
2024/04/20 02:03:19;;;;;;;;;6.50;5.00;;;;;8.70;63.06;102012.28;2205020;25;2740844;-73
2024/04/20 02:04:30;;;;;;;;;8.00;4.67;;;;;8.67;63.15;102009.66;2166390;26;2748576;-73
2024/04/20 02:05:44;;;;;;;;;4.83;4.83;;;;;8.65;62.97;102009.69;2207673;25;2748179;-73
2024/04/20 02:06:58;;;;;;;;;3.50;3.00;;;;;8.69;63.62;102017.53;2200949;26;2734576;-73
2024/04/20 02:08:12;;;;;;;;;8.00;6.17;;;;;8.69;63.51;102026.28;2199092;26;2748153;-74
2024/04/20 02:09:25;;;;;;;;;7.67;5.00;;;;;8.70;63.26;102020.16;2183944;25;2742909;-74
2024/04/20 02:10:39;;;;;;;;;4.17;2.83;;;;;8.69;63.30;102018.41;2183098;26;2746042;-74
2024/04/20 02:11:53;;;;;;;;;8.17;5.00;;;;;8.71;63.49;102027.16;2181672;26;2753365;-74
2024/04/20 02:13:04;;;;;;;;;5.00;3.33;;;;;8.64;62.95;102020.19;2140187;26;2754453;-73
2024/04/20 02:14:18;;;;;;;;;5.67;3.83;;;;;8.65;63.25;102020.16;2206601;26;2737704;-73
2024/04/20 02:15:29;;;;;;;;;5.67;5.67;;;;;8.66;63.52;102015.81;2152729;25;3476273;-73
2024/04/20 02:16:40;;;;;;;;;11.00;5.33;;;;;8.64;63.48;102017.56;2177909;25;3490846;-74
2024/04/20 02:17:51;;;;;;;;;11.00;7.00;;;;;8.62;63.22;102017.56;2165681;26;2777325;-73
2024/04/20 02:19:06;;;;;;;;;4.00;4.00;;;;;8.67;63.73;102017.53;2193820;26;2744996;-73
2024/04/20 02:20:17;;;;;;;;;6.00;4.00;;;;;8.63;63.19;102021.06;2140530;26;2748218;-73
2024/04/20 02:21:30;;;;;;;;;8.67;6.17;;;;;8.63;63.47;102023.66;2192264;26;2749190;-73
2024/04/20 02:22:44;;;;;;;;;6.00;4.17;;;;;8.62;63.24;102028.03;2181004;26;2754387;-73
2024/04/20 02:23:58;;;;;;;;;3.67;3.67;;;;;8.62;63.16;102024.53;2181354;26;2746054;-73
2024/04/20 02:25:09;;;;;;;;;12.33;4.67;;;;;8.61;63.72;102026.31;2160116;25;3495068;-73
2024/04/20 02:26:23;;;;;;;;;8.67;5.33;;;;;8.60;64.07;102019.31;2200971;26;2764815;-73
2024/04/20 02:27:36;;;;;;;;;7.33;5.00;;;;;8.62;63.76;102032.41;2193567;26;2740848;-73
2024/04/20 02:28:47;;;;;;;;;5.33;3.67;;;;;8.64;63.88;102035.91;2150114;26;3454618;-73
2024/04/20 02:30:01;;;;;;;;;6.17;4.00;;;;;8.63;63.68;102035.03;2194027;26;2737717;-73
2024/04/20 02:31:15;;;;;;;;;6.17;5.33;;;;;8.59;63.70;102035.94;2191314;26;2754406;-74
2024/04/20 02:32:28;;;;;;;;;7.33;5.50;;;;;8.58;63.63;102030.66;2166340;26;2741193;-74
2024/04/20 02:33:42;;;;;;;;;7.67;5.67;;;;;8.58;63.07;102043.75;2182616;25;2745039;-74
2024/04/20 02:34:56;;;;;;;;;5.67;4.67;;;;;8.50;63.15;102030.66;2205281;26;2754391;-74
2024/04/20 02:36:10;;;;;;;;;4.50;4.50;;;;;8.49;63.33;102029.81;2174302;25;2746058;-73
2024/04/20 02:37:21;;;;;;;;;10.33;5.00;;;;;8.47;63.53;102034.16;2145222;25;3483524;-73
2024/04/20 02:38:35;;;;;;;;;6.67;5.50;;;;;8.49;63.47;102044.66;2208439;25;2754387;-73
2024/04/20 02:39:49;;;;;;;;;5.67;5.33;;;;;8.43;63.28;102024.59;2182314;26;2752329;-73
2024/04/20 02:41:02;;;;;;;;;3.00;2.83;;;;;8.47;63.41;102031.53;2207551;26;2734639;-73
2024/04/20 02:42:14;;;;;;;;;11.33;4.33;;;;;8.48;63.44;102038.53;2176442;26;3501212;-74
2024/04/20 02:43:28;;;;;;;;;4.67;4.00;;;;;8.48;63.41;102041.16;2202937;26;2754371;-74
2024/04/20 02:44:41;;;;;;;;;7.17;5.00;;;;;8.46;63.58;102040.31;2182591;26;2746145;-73
2024/04/20 02:45:55;;;;;;;;;6.33;4.00;;;;;8.44;63.44;102042.06;2182103;26;2754851;-73
2024/04/20 02:47:06;;;;;;;;;3.67;3.00;;;;;8.45;63.29;102046.41;2140973;26;2746030;-73
2024/04/20 02:48:21;;;;;;;;;4.67;4.67;;;;;8.45;63.98;102038.53;2193831;26;2743989;-74
2024/04/20 02:49:35;;;;;;;;;7.50;4.33;;;;;8.47;63.42;102049.03;2192497;26;2754398;-74
2024/04/20 02:50:46;;;;;;;;;7.00;5.33;;;;;8.46;63.71;102037.69;2140377;26;2754387;-74
2024/04/20 02:52:00;;;;;;;;;2.17;1.00;;;;;8.47;62.70;102035.94;2194813;26;2735594;-73
2024/04/20 02:53:13;;;;;;;;;5.50;4.17;;;;;8.48;63.40;102046.41;2201239;26;2750253;-73
2024/04/20 02:54:24;;;;;;;;;7.33;4.00;;;;;8.49;63.76;102040.31;2152772;26;2745447;-74
2024/04/20 02:55:38;;;;;;;;;3.67;3.17;;;;;8.47;62.73;102041.19;2206919;26;2737701;-74
2024/04/20 02:56:52;;;;;;;;;4.00;3.00;;;;;8.44;62.64;102042.91;2193743;26;2746061;-74
2024/04/20 02:58:05;;;;;;;;;3.50;3.33;;;;;8.42;62.70;102049.06;2200955;26;2735638;-74
2024/04/20 02:59:19;;;;;;;;;3.17;2.33;;;;;8.44;62.96;102052.53;2191851;26;2746019;-74
2024/04/20 03:00:33;;;;;;;;;7.00;5.00;;;;;8.40;62.82;102041.19;2167107;26;2745041;-73
2024/04/20 03:01:47;;;;;;;;;3.67;3.67;;;;;8.37;62.73;102045.56;2170806;26;2730430;-74
2024/04/20 03:03:00;;;;;;;;;4.33;2.17;;;;;8.37;63.08;102054.28;2205760;26;2741880;-74
2024/04/20 03:04:14;;;;;;;;;4.00;3.00;;;;;8.37;63.32;102050.81;2183135;25;2732533;-74
2024/04/20 03:05:26;;;;;;;;;5.00;4.67;;;;;8.40;62.90;102050.78;2152783;25;2750212;-74
2024/04/20 03:06:39;;;;;;;;;2.83;2.00;;;;;8.39;63.09;102055.19;2208253;26;2742916;-74
2024/04/20 03:07:53;;;;;;;;;4.50;1.00;;;;;8.41;62.54;102053.41;2195823;25;2741915;-74
2024/04/20 03:09:07;;;;;;;;;3.50;3.50;;;;;8.39;62.12;102055.19;2193653;26;2722099;-74
2024/04/20 03:10:20;;;;;;;;;7.67;3.83;;;;;8.36;62.45;102051.69;2191546;26;2740852;-74
2024/04/20 03:11:34;;;;;;;;;4.33;3.00;;;;;8.32;62.15;102048.22;2167015;26;2737743;-73
2024/04/20 03:12:52;;;;;;;;;7.17;4.83;;;;;8.31;61.81;102051.69;2194097;26;2754384;-73
2024/04/20 03:14:05;;;;;;;;;3.83;3.00;;;;;8.29;62.60;102058.69;2182524;26;2737747;-73
2024/04/20 03:15:19;;;;;;;;;5.33;3.00;;;;;8.26;62.58;102054.31;2207396;25;2737708;-74
2024/04/20 03:16:33;;;;;;;;;3.67;2.67;;;;;8.25;61.71;102060.41;2181044;26;2733007;-73
2024/04/20 03:17:47;;;;;;;;;4.67;2.33;;;;;8.25;62.02;102062.19;2183018;26;2729416;-73
2024/04/20 03:19:00;;;;;;;;;2.17;2.17;;;;;8.21;62.01;102056.94;2197567;26;2746034;-73
2024/04/20 03:20:14;;;;;;;;;4.00;2.67;;;;;8.25;62.37;102063.03;2191445;26;2750264;-73
2024/04/20 03:21:28;;;;;;;;;4.00;3.17;;;;;8.24;62.24;102063.94;2191981;26;2752303;-73
2024/04/20 03:22:41;;;;;;;;;2.67;1.67;;;;;8.22;61.83;102066.53;2168712;26;2738771;-73
2024/04/20 03:23:55;;;;;;;;;5.67;4.00;;;;;8.22;61.95;102070.94;2198479;25;2754395;-74
2024/04/20 03:25:12;;;;;;;;;2.33;2.00;;;;;8.21;61.94;102063.94;2167889;26;2741871;-74
2024/04/20 03:26:25;;;;;;;;;5.00;4.00;;;;;8.18;61.41;102066.53;2193230;26;2743989;-74
2024/04/20 03:27:40;;;;;;;;;6.00;4.67;;;;;8.12;61.56;102067.44;2165869;26;2756473;-74
2024/04/20 03:28:54;;;;;;;;;5.83;5.17;;;;;8.14;62.04;102075.28;2167142;26;2752338;-74
2024/04/20 03:30:08;;;;;;;;;7.83;4.67;;;;;8.09;61.66;102063.09;2165947;26;2740837;-74
2024/04/20 03:31:22;;;;;;;;;3.67;3.50;;;;;8.05;62.08;102071.78;2199978;26;2741900;-74
2024/04/20 03:32:36;;;;;;;;;6.67;3.50;;;;;8.03;61.63;102067.44;2206312;26;2755662;-74
2024/04/20 03:33:50;;;;;;;;;6.00;4.17;;;;;8.06;61.83;102077.91;2183926;26;2747105;-74
2024/04/20 03:35:04;;;;;;;;;4.83;4.00;;;;;8.07;61.81;102075.31;2170514;26;2740862;-73
2024/04/20 03:36:19;;;;;;;;;3.33;2.67;;;;;8.10;61.56;102077.91;2201809;26;2744241;-73
2024/04/20 03:37:33;;;;;;;;;5.33;3.67;;;;;8.14;61.42;102075.28;2178466;26;2750704;-73
2024/04/20 03:38:49;;;;;;;;;6.67;4.83;;;;;8.08;61.58;102071.81;2193886;26;2754375;-73
2024/04/20 03:40:03;;;;;;;;;5.67;4.50;;;;;8.08;61.32;102071.81;2169858;26;2754866;-73
2024/04/20 03:41:17;;;;;;;;;5.33;4.00;;;;;8.08;61.60;102076.16;2166090;26;2749184;-73
2024/04/20 03:42:31;;;;;;;;;4.33;4.33;;;;;8.12;61.85;102079.66;2169470;26;2735638;-73
2024/04/20 03:43:44;;;;;;;;;4.17;4.00;;;;;8.09;61.68;102078.81;2206906;26;2752397;-73
2024/04/20 03:44:58;;;;;;;;;3.67;3.33;;;;;8.13;61.53;102078.78;2181410;26;2754375;-73
2024/04/20 03:46:12;;;;;;;;;6.50;1.83;;;;;8.10;62.02;102071.78;2168247;26;2736652;-73
2024/04/20 03:47:26;;;;;;;;;4.17;3.17;;;;;8.12;61.63;102075.31;2170020;26;2743978;-73
2024/04/20 03:48:40;;;;;;;;;4.83;3.00;;;;;8.09;61.40;102076.19;2169695;26;2748161;-73
2024/04/20 03:49:54;;;;;;;;;5.67;3.83;;;;;8.08;61.21;102070.91;2168190;26;2750253;-74
2024/04/20 03:51:05;;;;;;;;;6.67;4.00;;;;;8.06;61.26;102078.78;2140214;26;3457918;-74
2024/04/20 03:52:19;;;;;;;;;2.50;1.00;;;;;8.07;61.01;102085.78;2180441;26;2730426;-73
2024/04/20 03:53:32;;;;;;;;;3.00;3.00;;;;;8.05;60.94;102076.19;2189260;26;2747088;-73
2024/04/20 03:54:46;;;;;;;;;3.33;2.00;;;;;8.04;61.35;102077.03;2184227;26;2735661;-73
2024/04/20 03:56:00;;;;;;;;;4.83;2.83;;;;;8.04;61.10;102087.53;2193781;26;2722084;-73
2024/04/20 03:57:14;;;;;;;;;7.67;5.33;;;;;8.02;61.17;102087.53;2195297;26;2747119;-73
2024/04/20 03:58:27;;;;;;;;;4.33;3.00;;;;;7.99;61.14;102084.91;2169037;26;2730466;-73
2024/04/20 03:59:41;;;;;;;;;2.00;2.00;;;;;7.99;61.39;102091.03;2168762;26;2742130;-73
2024/04/20 04:00:55;;;;;;;;;5.17;2.67;;;;;7.93;61.32;102085.78;2168985;26;2731486;-73
2024/04/20 04:02:09;;;;;;;;;3.67;3.00;;;;;7.93;61.20;102096.25;2203255;26;2752357;-73
2024/04/20 04:03:24;;;;;;;;;3.00;2.00;;;;;7.92;60.69;102097.13;2181382;26;2746046;-74
2024/04/20 04:04:38;;;;;;;;;5.17;3.17;;;;;7.86;60.89;102091.88;2184796;25;2744225;-74
2024/04/20 04:05:51;;;;;;;;;6.83;3.00;;;;;7.85;61.15;102098.00;2196350;26;2741875;-74
2024/04/20 04:07:05;;;;;;;;;3.17;2.67;;;;;7.84;61.38;102101.47;2166756;26;2738204;-74
2024/04/20 04:08:19;;;;;;;;;5.67;3.00;;;;;7.85;61.29;102101.47;2193801;26;2754391;-74
2024/04/20 04:09:33;;;;;;;;;3.00;2.00;;;;;7.83;61.16;102090.13;2168989;26;2730913;-74
2024/04/20 04:10:46;;;;;;;;;5.00;3.00;;;;;7.86;61.12;102102.34;2197692;26;2743970;-74
2024/04/20 04:12:00;;;;;;;;;4.00;3.67;;;;;7.84;61.84;102096.25;2184719;25;2732493;-74
2024/04/20 04:13:15;;;;;;;;;6.67;3.33;;;;;7.79;61.25;102098.88;2178847;25;2754426;-73
2024/04/20 04:14:29;;;;;;;;;3.00;2.33;;;;;7.79;61.36;102101.47;2209630;25;2744009;-73
2024/04/20 04:15:44;;;;;;;;;4.50;2.50;;;;;7.80;61.18;102108.47;2208607;25;2735609;-74
2024/04/20 04:16:57;;;;;;;;;1.17;1.17;;;;;7.82;61.57;102104.09;2208952;26;2723118;-74
2024/04/20 04:18:12;;;;;;;;;4.17;1.33;;;;;7.80;61.42;102102.38;2206767;26;2746453;-73
2024/04/20 04:19:25;;;;;;;;;3.00;2.00;;;;;7.81;61.45;102115.44;2207407;26;2743991;-73
2024/04/20 04:20:39;;;;;;;;;4.00;3.00;;;;;7.82;60.80;102108.47;2207510;26;2736655;-73
2024/04/20 04:21:53;;;;;;;;;1.00;1.00;;;;;7.82;61.36;102111.97;2207538;26;2730410;-73
2024/04/20 04:23:07;;;;;;;;;1.33;1.33;;;;;7.76;60.82;102115.44;2206924;26;2739809;-73
2024/04/20 04:24:20;;;;;;;;;2.83;1.00;;;;;7.75;60.95;102118.06;2206766;26;2732500;-73
2024/04/20 04:25:35;;;;;;;;;4.83;3.00;;;;;7.72;60.93;102107.59;2206727;26;2737175;-73
2024/04/20 04:26:49;;;;;;;;;1.33;1.33;;;;;7.71;61.12;102103.22;2170553;26;2746501;-73
2024/04/20 04:28:02;;;;;;;;;5.50;2.83;;;;;7.75;61.27;102110.22;2192804;26;2750193;-74
2024/04/20 04:29:16;;;;;;;;;2.33;2.33;;;;;7.77;60.71;102111.09;2166995;26;2739089;-74
2024/04/20 04:30:32;;;;;;;;;3.50;2.50;;;;;7.78;60.96;102114.56;2195506;26;2746030;-74
2024/04/20 04:31:46;;;;;;;;;4.33;2.33;;;;;7.83;61.22;102118.03;2183598;26;2732545;-74
2024/04/20 04:32:59;;;;;;;;;1.67;1.17;;;;;7.84;61.16;102107.59;2196748;26;2743991;-74
2024/04/20 04:34:13;;;;;;;;;4.83;4.33;;;;;7.79;60.53;102116.31;2207243;25;2746049;-74
2024/04/20 04:35:27;;;;;;;;;4.00;3.00;;;;;7.79;61.20;102117.19;2182688;25;2743990;-74
2024/04/20 04:36:41;;;;;;;;;1.67;1.17;;;;;7.79;60.78;102125.03;2209161;26;2737697;-74
2024/04/20 04:37:54;;;;;;;;;2.00;1.67;;;;;7.77;61.02;102116.31;2192598;26;2743990;-74
2024/04/20 04:39:09;;;;;;;;;2.83;2.00;;;;;7.77;61.15;102121.56;2194232;26;2741867;-74
2024/04/20 04:40:23;;;;;;;;;2.50;2.50;;;;;7.79;61.25;102121.53;2194277;26;2736711;-74
2024/04/20 04:41:37;;;;;;;;;4.67;1.67;;;;;7.80;61.05;102120.69;2208920;26;2737781;-74
2024/04/20 04:42:51;;;;;;;;;2.83;2.83;;;;;7.81;61.02;102120.69;2168430;26;2736670;-74
2024/04/20 04:44:04;;;;;;;;;1.00;1.00;;;;;7.82;61.45;102117.19;2206765;26;2737195;-74
2024/04/20 04:45:20;;;;;;;;;2.67;2.67;;;;;7.86;61.33;102118.94;2207450;26;2732818;-74
2024/04/20 04:46:34;;;;;;;;;4.00;4.00;;;;;7.87;60.99;102114.59;2183781;26;2741894;-74
2024/04/20 04:47:47;;;;;;;;;1.83;1.33;;;;;7.86;60.48;102121.56;2182426;26;2737745;-73
2024/04/20 04:49:01;;;;;;;;;4.33;2.50;;;;;7.85;60.33;102116.34;2196051;26;2748133;-74
2024/04/20 04:50:15;;;;;;;;;3.83;1.50;;;;;7.83;60.61;102110.19;2168406;26;2741900;-74
2024/04/20 04:51:28;;;;;;;;;2.33;2.00;;;;;7.79;60.78;102125.03;2206732;26;2737727;-74
2024/04/20 04:52:45;;;;;;;;;2.67;2.67;;;;;7.80;60.56;102126.81;2193222;26;2741878;-74
2024/04/20 04:53:58;;;;;;;;;8.00;5.50;;;;;7.76;60.87;102122.41;2178743;26;2750640;-74
2024/04/20 04:55:12;;;;;;;;;1.67;1.33;;;;;7.75;60.60;102126.75;2209237;25;2736723;-74
2024/04/20 04:56:26;;;;;;;;;1.33;0.67;;;;;7.75;60.47;102125.91;2207462;26;2737736;-73
2024/04/20 04:57:40;;;;;;;;;6.00;5.50;;;;;7.79;60.80;102135.50;2200557;25;2742936;-74
2024/04/20 04:58:58;;;;;;;;;7.83;4.33;;;;;7.76;60.92;102127.66;2166873;26;2744997;-74
2024/04/20 05:00:12;;;;;;;;;5.83;4.17;;;;;7.76;60.72;102136.38;2194393;26;2746100;-74
2024/04/20 05:01:26;;;;;;;;;5.50;4.33;;;;;7.70;60.38;102133.75;2205820;26;2736721;-74
2024/04/20 05:02:40;;;;;;;;;2.50;2.50;;;;;7.70;60.88;102135.50;2197634;25;2728349;-74
2024/04/20 05:03:53;;;;;;;;;3.50;3.50;;;;;7.64;61.11;102134.63;2201827;26;2738755;-74
2024/04/20 05:05:07;;;;;;;;;2.83;2.50;;;;;7.65;60.36;102143.34;2206698;26;2748152;-74
2024/04/20 05:06:21;;;;;;;;;4.67;4.00;;;;;7.70;60.78;102148.59;2208439;25;2741868;-74
2024/04/20 05:07:35;;;;;;;;;3.50;3.17;;;;;7.71;60.60;102147.69;2182943;26;2741887;-74
2024/04/20 05:08:48;;;;;;;;;4.50;4.17;;;;;7.70;60.97;102144.22;2207910;26;2742149;-74
2024/04/20 05:10:03;;;;;;;;;5.17;3.00;;;;;7.74;60.50;102150.34;2207397;25;2730414;-74
2024/04/20 05:11:17;;;;;;;;;3.83;2.67;;;;;7.74;60.28;102152.94;2205461;26;2742937;-74
2024/04/20 05:12:30;;;;;;;;;4.50;3.00;;;;;7.79;60.26;102159.06;2194526;26;2733547;-73
2024/04/20 05:13:45;;;;;;;;;4.17;4.00;;;;;7.77;60.55;102160.81;2193352;26;2744992;-73
2024/04/20 05:14:58;;;;;;;;;5.67;3.83;;;;;7.71;60.01;102159.06;2194917;26;2746085;-73
2024/04/20 05:16:12;;;;;;;;;4.50;1.00;;;;;7.69;60.49;102173.88;2193216;26;2738747;-74
2024/04/20 05:17:26;;;;;;;;;5.17;4.50;;;;;7.70;59.90;102174.75;2199476;26;2751270;-73
2024/04/20 05:18:40;;;;;;;;;3.50;2.67;;;;;7.68;60.26;102179.13;2208035;26;2750208;-74
2024/04/20 05:19:53;;;;;;;;;8.17;5.67;;;;;7.68;60.26;102172.13;2191897;26;2748109;-73
2024/04/20 05:21:07;;;;;;;;;3.17;2.67;;;;;7.70;60.91;102175.66;2172373;26;2746062;-73
2024/04/20 05:22:21;;;;;;;;;3.83;2.33;;;;;7.70;60.35;102174.75;2208205;26;2734591;-73
2024/04/20 05:23:35;;;;;;;;;6.00;4.17;;;;;7.71;60.04;102184.34;2183220;26;2747089;-73
2024/04/20 05:24:49;;;;;;;;;4.83;4.00;;;;;7.69;60.49;102180.84;2207006;26;2746057;-73
2024/04/20 05:26:03;;;;;;;;;5.17;3.33;;;;;7.69;60.61;102181.72;2206620;26;2754387;-73
2024/04/20 05:27:16;;;;;;;;;3.67;3.67;;;;;7.76;60.34;102185.22;2183294;26;2731549;-74
2024/04/20 05:28:31;;;;;;;;;5.17;2.83;;;;;7.70;60.20;102182.63;2194041;26;2754367;-73
2024/04/20 05:29:45;;;;;;;;;5.00;3.67;;;;;7.67;60.34;102185.22;2194395;26;2747099;-73
2024/04/20 05:30:59;;;;;;;;;4.00;3.83;;;;;7.70;60.61;102190.47;2168214;26;2745031;-73
2024/04/20 05:32:12;;;;;;;;;3.00;3.00;;;;;7.71;60.48;102190.47;2197083;26;2742307;-73
2024/04/20 05:33:26;;;;;;;;;5.00;4.83;;;;;7.71;60.53;102190.47;2207479;25;2743400;-73
2024/04/20 05:34:40;;;;;;;;;4.83;3.83;;;;;7.68;60.29;102186.97;2193120;26;2746076;-73
2024/04/20 05:35:54;;;;;;;;;5.50;4.00;;;;;7.68;59.74;102192.22;2197712;26;2737737;-74
2024/04/20 05:37:11;;;;;;;;;2.50;2.50;;;;;7.66;59.80;102197.41;2208493;26;2739830;-73
2024/04/20 05:38:25;;;;;;;;;7.00;7.00;;;;;7.64;59.31;102201.78;2208365;25;2748136;-73